Janesville, Minnesota
Current Conditions -  °F | °C
As of 11:15 AM on Saturday 20 Dec 2014 (Local Time) from KACQ Reporting Station
Haze Haze  
Wind Chill: 23°   Ceiling: 1200
Heat Index: 32°   Visibility: 5mi
Dew Point: 30°   Wind: 13mph
Humidity: 93%   Direction: 200°SSW
Pressure: 30.16"   Gusts: NA
Location:  44.12°N, 93.71°W
Report Text: KACQ 201715Z AUTO 20011KT 5SM BR OVC012 00/M01 A3016 RMK AO2
Loading
Personal Weather Stations






























Interactive Weather Map New forecast layout! Learn more

10-Day Weather Forecast

Advertisements
Track Severe Weather on mobile